1P1

Plymouth Municipal Airport

Plymouth, New Hampshire, USA
METAR K1P1 162235Z AUTO 00000KT 10SM SCT024 OVC033 00/M04 A2987 RMK AO2 T00011043
Observed Flight Rules
Jan-16 @ 22:35 UTC (22 minutes ago) Visual Flight Rules
Visibility Clouds
10 miles
  • Scattered at 2,400' AGL
  • Overcast at 3,300' AGL
Temperatures Readings
Current 0°C / 32°F
Dewpoint -4°C / 25°F
Humidity 75%
Altimeter 29.87" Hg
Pressure 1011.52 hPa
Elevation 154
METAR K1P1 162235Z AUTO 00000KT 10SM SCT024 OVC033 00/M04 A2987 RMK AO2 T00011043
Observed Flight Rules
Jan-16 @ 22:35 UTC
(22 minutes ago)
VFR
Clouds
  • Scattered at 2,400' AGL
  • Overcast at 3,300' AGL
Temperature Dewpoint
0°C / 32°F -4°C / 25°F
Humidity Altimeter Pressure
75% 29.87" Hg 1011.52 hPa